Time;durP1;ratioP1;P1;durP2;ratioP2;P2;SDS_P1;SDS_P2;PMS_P1;PMS_P2;Temp;Humidity;BMP_temperature;BMP_pressure;BME280_temperature;BME280_humidity;BME280_pressure;Samples;Min_cycle;Max_cycle;Signal;HPM_P1;HPM_P2
2022/01/09 00:01:50;;;;;;;4.15;2.38;;;8.20;92.50;;;;;;5037376;28;20056;-69
2022/01/09 00:04:16;;;;;;;1.63;1.48;;;8.20;92.60;;;;;;5045283;28;20381;-68
2022/01/09 00:06:42;;;;;;;7.15;2.63;;;8.20;92.50;;;;;;5048026;28;20052;-68
2022/01/09 00:09:07;;;;;;;3.55;2.42;;;8.20;92.50;;;;;;5034407;28;20033;-68
2022/01/09 00:11:33;;;;;;;3.80;2.30;;;8.20;92.50;;;;;;5051278;28;20094;-68
2022/01/09 00:13:58;;;;;;;4.38;1.73;;;8.20;92.60;;;;;;5054816;28;20025;-68
2022/01/09 00:16:24;;;;;;;3.25;2.58;;;8.10;92.50;;;;;;5019652;28;20029;-68
2022/01/09 00:18:50;;;;;;;5.20;2.95;;;8.20;92.50;;;;;;5017049;28;20474;-68
2022/01/09 00:21:17;;;;;;;2.47;2.10;;;8.20;92.50;;;;;;5038949;28;20401;-68
2022/01/09 00:23:42;;;;;;;1.65;1.33;;;8.20;92.50;;;;;;5031227;28;20037;-68
2022/01/09 00:26:09;;;;;;;3.13;2.40;;;8.20;92.50;;;;;;5014504;28;20033;-68
2022/01/09 00:28:35;;;;;;;3.05;1.95;;;8.20;92.50;;;;;;5013011;28;20053;-68
2022/01/09 00:31:01;;;;;;;2.45;2.25;;;8.20;92.80;;;;;;5024996;28;20037;-69
2022/01/09 00:33:27;;;;;;;2.53;1.67;;;8.20;92.50;;;;;;5027874;28;20033;-69
2022/01/09 00:35:53;;;;;;;1.80;1.60;;;8.20;92.50;;;;;;5053440;28;20068;-68
2022/01/09 00:38:19;;;;;;;2.97;2.15;;;8.30;92.50;;;;;;5054354;28;20060;-68
2022/01/09 00:40:45;;;;;;;3.53;2.30;;;8.30;92.50;;;;;;5038947;28;20179;-68
2022/01/09 00:43:12;;;;;;;4.63;2.03;;;8.30;92.50;;;;;;5053580;28;20120;-68
2022/01/09 00:45:39;;;;;;;2.72;2.00;;;8.30;92.50;;;;;;5053966;28;20071;-69
2022/01/09 00:48:06;;;;;;;2.60;2.00;;;8.30;92.40;;;;;;5037205;28;20033;-68
2022/01/09 00:50:33;;;;;;;1.98;1.77;;;8.30;92.50;;;;;;5043837;28;20025;-69
2022/01/09 00:52:59;;;;;;;1.80;1.52;;;8.30;92.40;;;;;;5044969;28;20393;-69
2022/01/09 00:55:27;;;;;;;3.38;1.90;;;8.30;92.50;;;;;;5050026;28;20431;-69
2022/01/09 00:57:53;;;;;;;3.10;1.70;;;8.30;92.50;;;;;;5053141;28;20129;-69
2022/01/09 01:00:19;;;;;;;2.20;1.65;;;8.30;92.50;;;;;;5041967;28;20052;-69
2022/01/09 01:02:45;;;;;;;2.42;2.15;;;8.30;92.50;;;;;;5043162;28;20072;-69
2022/01/09 01:05:12;;;;;;;3.10;1.42;;;8.30;92.40;;;;;;5050201;28;20056;-69
2022/01/09 01:07:38;;;;;;;1.77;1.48;;;8.30;92.40;;;;;;5041416;28;20025;-69
2022/01/09 01:10:04;;;;;;;2.00;1.55;;;8.30;92.40;;;;;;5042093;28;20397;-69
2022/01/09 01:12:32;;;;;;;2.53;1.77;;;8.30;92.40;;;;;;5036041;28;20063;-69
2022/01/09 01:14:58;;;;;;;2.80;2.10;;;8.30;92.50;;;;;;5051763;28;20025;-69
2022/01/09 01:17:25;;;;;;;1.75;1.50;;;8.30;92.40;;;;;;5053539;28;20029;-69
2022/01/09 01:19:52;;;;;;;1.83;1.58;;;8.30;92.40;;;;;;5030626;28;20029;-69
2022/01/09 01:22:18;;;;;;;1.40;1.05;;;8.20;92.40;;;;;;5053450;28;20377;-68
2022/01/09 01:24:45;;;;;;;1.98;1.63;;;8.20;92.50;;;;;;5039106;28;20089;-69
2022/01/09 01:27:12;;;;;;;1.85;1.60;;;8.20;92.50;;;;;;5040121;28;20033;-69
2022/01/09 01:29:38;;;;;;;0.90;0.85;;;8.10;92.60;;;;;;5051460;28;20422;-69
2022/01/09 01:32:05;;;;;;;3.67;2.38;;;8.10;92.80;;;;;;5041169;28;20041;-69
2022/01/09 01:34:32;;;;;;;1.30;1.20;;;8.10;92.90;;;;;;5052973;28;20032;-69
2022/01/09 01:36:58;;;;;;;0.77;0.77;;;8.10;92.90;;;;;;5053234;28;20033;-69
2022/01/09 01:39:24;;;;;;;2.05;1.55;;;8.00;92.90;;;;;;5046238;28;20576;-69
2022/01/09 01:41:49;;;;;;;1.52;1.08;;;8.00;93.00;;;;;;5013669;28;20060;-69
2022/01/09 01:44:15;;;;;;;0.70;0.70;;;7.90;93.10;;;;;;5046144;28;20521;-69
2022/01/09 01:46:41;;;;;;;1.55;1.35;;;7.90;93.30;;;;;;5052351;28;20420;-69
2022/01/09 01:49:11;;;;;;;3.10;2.40;;;7.80;93.40;;;;;;5045198;28;20556;-69
2022/01/09 01:51:43;;;;;;;2.88;2.00;;;7.80;93.50;;;;;;5013164;28;20042;-69
2022/01/09 01:54:13;;;;;;;5.88;2.40;;;7.80;93.50;;;;;;5049628;28;20116;-69
2022/01/09 01:56:39;;;;;;;1.08;1.00;;;7.80;93.50;;;;;;5052730;28;20037;-69
2022/01/09 01:59:05;;;;;;;2.80;2.40;;;7.80;93.50;;;;;;5030943;28;20033;-69
2022/01/09 02:01:31;;;;;;;2.08;1.80;;;7.80;93.50;;;;;;5045202;28;20025;-69
2022/01/09 02:03:57;;;;;;;1.67;1.58;;;7.80;93.50;;;;;;5052775;28;20491;-69
2022/01/09 02:06:23;;;;;;;2.55;1.90;;;7.90;93.50;;;;;;5050755;28;20065;-69
2022/01/09 02:08:49;;;;;;;3.47;2.40;;;7.90;93.40;;;;;;5026814;28;20032;-69
2022/01/09 02:11:15;;;;;;;1.63;1.52;;;7.90;93.40;;;;;;5037990;28;20045;-69
2022/01/09 02:13:43;;;;;;;3.17;2.33;;;7.90;93.40;;;;;;5032509;28;20037;-69
2022/01/09 02:16:16;;;;;;;1.42;1.17;;;7.90;93.30;;;;;;5031743;28;20029;-69
2022/01/09 02:18:43;;;;;;;1.37;1.27;;;7.90;93.30;;;;;;5032594;28;20026;-69
2022/01/09 02:21:10;;;;;;;5.25;2.80;;;8.00;93.30;;;;;;5031456;28;20331;-69
2022/01/09 02:23:39;;;;;;;4.00;2.67;;;8.00;93.30;;;;;;5032630;28;20029;-69
2022/01/09 02:26:05;;;;;;;4.43;3.08;;;8.00;93.30;;;;;;5032251;28;20036;-69
2022/01/09 02:28:30;;;;;;;4.25;3.50;;;8.00;93.30;;;;;;5031867;28;20039;-69
2022/01/09 02:30:56;;;;;;;6.78;3.53;;;8.00;93.30;;;;;;5032132;28;20041;-69
2022/01/09 02:33:22;;;;;;;8.85;3.78;;;8.10;93.30;;;;;;5051352;28;20107;-69
2022/01/09 02:35:50;;;;;;;4.68;2.63;;;8.10;93.30;;;;;;5051731;28;20048;-69
2022/01/09 02:38:16;;;;;;;4.15;2.60;;;8.10;93.20;;;;;;5045759;28;20038;-69
2022/01/09 02:40:41;;;;;;;4.13;3.42;;;8.20;93.20;;;;;;5031818;28;20481;-69
2022/01/09 02:43:07;;;;;;;4.68;3.45;;;8.20;93.20;;;;;;5019186;28;20025;-69
2022/01/09 02:45:33;;;;;;;4.78;3.42;;;8.20;93.10;;;;;;5032722;28;20095;-69
2022/01/09 02:48:02;;;;;;;4.75;3.30;;;8.20;93.00;;;;;;5051728;28;20029;-68
2022/01/09 02:50:34;;;;;;;4.18;3.10;;;8.20;93.00;;;;;;5048394;28;20036;-69
2022/01/09 02:53:13;;;;;;;4.88;3.72;;;8.30;93.10;;;;;;5023616;28;20045;-69
2022/01/09 02:55:39;;;;;;;2.85;2.33;;;8.20;93.10;;;;;;5038106;28;20037;-69
2022/01/09 02:58:05;;;;;;;4.30;2.33;;;8.30;93.00;;;;;;5043341;28;20069;-69
2022/01/09 03:00:37;;;;;;;4.13;2.85;;;8.30;93.00;;;;;;5044301;28;20111;-69
2022/01/09 03:03:03;;;;;;;3.50;2.47;;;8.30;93.00;;;;;;5043788;28;20103;-69
2022/01/09 03:05:30;;;;;;;2.80;2.03;;;8.20;92.90;;;;;;5042424;28;20112;-69
2022/01/09 03:07:56;;;;;;;3.70;2.53;;;8.20;92.90;;;;;;5039693;28;20021;-69
2022/01/09 03:10:22;;;;;;;4.75;2.78;;;8.20;92.90;;;;;;5042366;28;20375;-69
2022/01/09 03:12:49;;;;;;;4.53;2.92;;;8.30;93.00;;;;;;5039867;28;20056;-69
2022/01/09 03:15:16;;;;;;;2.90;2.42;;;8.20;93.00;;;;;;5042206;28;20037;-69
2022/01/09 03:17:43;;;;;;;3.20;2.63;;;8.20;93.00;;;;;;5038783;28;20037;-69
2022/01/09 03:20:12;;;;;;;2.05;1.52;;;8.20;93.00;;;;;;5050134;28;20021;-69
2022/01/09 03:22:38;;;;;;;2.17;1.95;;;8.20;93.00;;;;;;5038575;28;20040;-69
2022/01/09 03:25:07;;;;;;;16.33;2.80;;;8.20;93.00;;;;;;5033433;28;20029;-69
2022/01/09 03:27:33;;;;;;;8.20;3.00;;;8.10;93.20;;;;;;5030816;28;20130;-69
2022/01/09 03:29:59;;;;;;;6.85;4.25;;;8.20;93.30;;;;;;5054486;28;20076;-69
2022/01/09 03:32:25;;;;;;;8.95;3.63;;;8.20;93.40;;;;;;5041091;28;20536;-69
2022/01/09 03:34:50;;;;;;;5.80;3.20;;;8.20;93.50;;;;;;5044611;28;20163;-69
2022/01/09 03:37:16;;;;;;;6.72;4.07;;;8.30;93.50;;;;;;5017594;28;20045;-69
2022/01/09 03:39:42;;;;;;;8.95;2.80;;;8.30;93.50;;;;;;5024598;28;20014;-69
2022/01/09 03:42:07;;;;;;;12.75;2.83;;;8.40;93.50;;;;;;5027456;28;20026;-69
2022/01/09 03:44:33;;;;;;;4.85;1.83;;;8.40;93.40;;;;;;5041778;28;20021;-69
2022/01/09 03:46:59;;;;;;;11.98;2.35;;;8.40;93.40;;;;;;5050305;28;20032;-69
2022/01/09 03:49:25;;;;;;;7.78;2.10;;;8.30;93.60;;;;;;5052397;28;20045;-69
2022/01/09 03:51:52;;;;;;;13.82;2.67;;;8.30;93.70;;;;;;5048103;28;20047;-69
2022/01/09 03:54:21;;;;;;;17.58;2.75;;;8.30;93.70;;;;;;5042153;28;20508;-69
2022/01/09 03:56:48;;;;;;;17.60;2.50;;;8.30;93.90;;;;;;5038329;28;20029;-69
2022/01/09 03:59:15;;;;;;;20.20;2.53;;;8.30;94.20;;;;;;5036781;28;20057;-69
2022/01/09 04:01:40;;;;;;;16.50;2.33;;;8.30;94.30;;;;;;5037987;28;20390;-69
2022/01/09 04:04:06;;;;;;;15.38;2.38;;;8.30;94.40;;;;;;5029834;28;20026;-69
2022/01/09 04:06:32;;;;;;;11.93;2.40;;;8.30;94.50;;;;;;5054231;28;20029;-70
2022/01/09 04:09:06;;;;;;;13.80;2.78;;;8.30;94.40;;;;;;5041331;28;20076;-70
2022/01/09 04:11:36;;;;;;;15.60;2.95;;;8.30;94.50;;;;;;5054763;28;20065;-70
2022/01/09 04:14:02;;;;;;;13.52;2.97;;;8.30;94.70;;;;;;5053655;28;20191;-69
2022/01/09 04:16:28;;;;;;;16.83;2.78;;;8.30;94.70;;;;;;5049255;28;20145;-69
2022/01/09 04:18:54;;;;;;;22.77;2.67;;;8.40;94.70;;;;;;5049650;28;20021;-70
2022/01/09 04:21:19;;;;;;;5.75;1.30;;;8.40;94.60;;;;;;5022801;28;20112;-70
2022/01/09 04:23:45;;;;;;;21.13;2.30;;;8.40;94.50;;;;;;5037591;28;20482;-70
2022/01/09 04:26:11;;;;;;;16.55;2.30;;;8.40;94.50;;;;;;5053482;28;20029;-70
2022/01/09 04:28:36;;;;;;;8.10;1.70;;;8.40;94.20;;;;;;5053502;28;20064;-70
2022/01/09 04:31:02;;;;;;;16.38;3.38;;;8.40;94.20;;;;;;5045860;28;20081;-69
2022/01/09 04:33:28;;;;;;;17.92;2.08;;;8.40;94.20;;;;;;5049331;28;20025;-70
2022/01/09 04:35:54;;;;;;;7.05;1.60;;;8.40;94.10;;;;;;5053606;28;20021;-69
2022/01/09 04:38:19;;;;;;;12.27;1.73;;;8.40;94.00;;;;;;5051731;28;20029;-70
2022/01/09 04:40:47;;;;;;;10.43;2.25;;;8.40;94.00;;;;;;5043578;28;20484;-70
2022/01/09 04:43:15;;;;;;;12.77;2.80;;;8.30;94.20;;;;;;5037258;28;20116;-70
2022/01/09 04:45:41;;;;;;;11.73;2.70;;;8.30;93.90;;;;;;5044082;28;20048;-69
2022/01/09 04:48:09;;;;;;;14.35;2.88;;;8.30;94.30;;;;;;5053572;28;20029;-69
2022/01/09 04:50:36;;;;;;;21.25;2.65;;;8.30;94.00;;;;;;5039629;28;20108;-70
2022/01/09 04:53:06;;;;;;;13.23;2.30;;;8.30;94.10;;;;;;5029931;28;20022;-70
2022/01/09 04:55:50;;;;;;;29.60;5.40;;;8.30;94.10;;;;;;5038108;28;20060;-70
2022/01/09 04:58:17;;;;;;;13.18;2.50;;;8.30;94.30;;;;;;5052935;28;20036;-70
2022/01/09 05:00:43;;;;;;;25.95;4.43;;;8.30;94.20;;;;;;5050554;28;20044;-70
2022/01/09 05:03:10;;;;;;;33.50;5.43;;;8.30;94.40;;;;;;5033339;28;20060;-70
2022/01/09 05:05:36;;;;;;;16.73;3.17;;;8.30;94.50;;;;;;5033553;28;20036;-70
2022/01/09 05:08:02;;;;;;;13.98;2.83;;;8.30;94.60;;;;;;5043199;28;20103;-69
2022/01/09 05:10:28;;;;;;;33.47;3.72;;;8.30;94.50;;;;;;5052916;28;20087;-70
2022/01/09 05:12:53;;;;;;;34.05;4.78;;;8.20;94.50;;;;;;5053576;28;20049;-70
2022/01/09 05:15:20;;;;;;;32.17;3.67;;;8.30;94.60;;;;;;5052878;28;20029;-70
2022/01/09 05:17:46;;;;;;;8.68;1.63;;;8.30;94.70;;;;;;5052707;28;20392;-70
2022/01/09 05:20:12;;;;;;;14.35;3.10;;;8.30;94.70;;;;;;5026825;28;20427;-70
2022/01/09 05:22:38;;;;;;;6.40;1.50;;;8.30;94.80;;;;;;5053281;28;20450;-70
2022/01/09 05:25:06;;;;;;;9.85;1.85;;;8.20;94.80;;;;;;5048112;28;20108;-70
2022/01/09 05:27:33;;;;;;;15.55;2.80;;;8.30;94.90;;;;;;5033525;28;20401;-70
2022/01/09 05:29:59;;;;;;;26.67;4.97;;;8.30;94.90;;;;;;5051221;28;20029;-70
2022/01/09 05:32:24;;;;;;;8.68;2.22;;;8.20;95.00;;;;;;5026412;28;20053;-70
2022/01/09 05:34:50;;;;;;;10.05;1.75;;;8.30;95.00;;;;;;5039506;28;20025;-70
2022/01/09 05:37:16;;;;;;;14.95;2.13;;;8.30;95.00;;;;;;5013777;28;20034;-69
2022/01/09 05:39:42;;;;;;;9.70;1.77;;;8.20;95.00;;;;;;5039098;28;20060;-70
2022/01/09 05:42:10;;;;;;;20.55;4.40;;;8.30;95.00;;;;;;5026115;28;20073;-70
2022/01/09 05:44:35;;;;;;;30.02;3.10;;;8.30;95.10;;;;;;5014885;28;20517;-70
2022/01/09 05:47:02;;;;;;;17.27;3.38;;;8.30;95.10;;;;;;5052243;28;20120;-69
2022/01/09 05:49:30;;;;;;;7.40;2.42;;;8.30;95.10;;;;;;5029607;28;20136;-70
2022/01/09 05:51:56;;;;;;;21.60;5.10;;;8.30;95.10;;;;;;5044884;28;20116;-70
2022/01/09 05:54:23;;;;;;;16.02;1.95;;;8.30;95.10;;;;;;5017127;28;20128;-70
2022/01/09 05:56:51;;;;;;;17.35;1.77;;;8.30;95.10;;;;;;5031768;28;20438;-70
2022/01/09 05:59:18;;;;;;;13.65;2.85;;;8.30;95.10;;;;;;5035332;28;20477;-70
2022/01/09 06:01:47;;;;;;;1.58;1.08;;;8.30;95.10;;;;;;5033607;28;20037;-70
2022/01/09 06:04:12;;;;;;;15.82;2.58;;;8.30;95.10;;;;;;5049866;28;20032;-70
2022/01/09 06:06:38;;;;;;;8.90;2.13;;;8.40;95.10;;;;;;5052092;28;20025;-70
2022/01/09 06:09:08;;;;;;;11.15;2.42;;;8.40;95.10;;;;;;5052483;28;20029;-70
2022/01/09 06:11:34;;;;;;;4.55;1.88;;;8.30;95.00;;;;;;5052672;28;20131;-70
2022/01/09 06:14:00;;;;;;;17.88;2.30;;;8.40;95.00;;;;;;5046823;28;20017;-70
2022/01/09 06:16:25;;;;;;;13.50;2.20;;;8.40;95.00;;;;;;5043531;28;20025;-70
2022/01/09 06:18:51;;;;;;;23.98;2.97;;;8.40;95.00;;;;;;5052325;28;20377;-70
2022/01/09 06:21:17;;;;;;;26.92;3.80;;;8.40;95.00;;;;;;5052042;28;20125;-70
2022/01/09 06:23:42;;;;;;;18.85;3.15;;;8.40;94.90;;;;;;5050696;28;20025;-70
2022/01/09 06:26:08;;;;;;;4.97;1.17;;;8.40;94.90;;;;;;5051843;28;20536;-70
2022/01/09 06:28:33;;;;;;;19.88;2.50;;;8.40;94.90;;;;;;5051738;28;20384;-70
2022/01/09 06:30:59;;;;;;;7.47;1.70;;;8.40;94.80;;;;;;5038300;28;20033;-70
2022/01/09 06:33:25;;;;;;;20.23;3.75;;;8.50;94.90;;;;;;5020721;28;20026;-70
2022/01/09 06:35:54;;;;;;;19.23;3.63;;;8.50;94.80;;;;;;5049867;28;20411;-70
2022/01/09 06:38:19;;;;;;;21.25;3.05;;;8.50;94.80;;;;;;5025156;28;20090;-70
2022/01/09 06:40:45;;;;;;;14.32;2.67;;;8.50;94.80;;;;;;5050724;28;20071;-70
2022/01/09 06:43:11;;;;;;;9.13;2.05;;;8.50;94.70;;;;;;5039104;28;20461;-70
2022/01/09 06:45:36;;;;;;;20.65;2.65;;;8.50;94.80;;;;;;5052818;28;20361;-70
2022/01/09 06:48:02;;;;;;;12.43;2.83;;;8.50;94.80;;;;;;5038626;28;20057;-69
2022/01/09 06:50:31;;;;;;;6.97;1.20;;;8.50;94.80;;;;;;5038058;28;20055;-70
2022/01/09 06:52:56;;;;;;;1.88;0.75;;;8.40;94.80;;;;;;5048776;28;20052;-70
2022/01/09 06:55:25;;;;;;;14.05;2.17;;;8.50;94.80;;;;;;5051412;28;20480;-70
2022/01/09 06:57:53;;;;;;;26.83;4.50;;;8.40;94.80;;;;;;5051608;28;20029;-70
2022/01/09 07:00:19;;;;;;;8.93;1.58;;;8.50;94.70;;;;;;5040246;28;20037;-70
2022/01/09 07:02:45;;;;;;;8.05;1.85;;;8.40;94.70;;;;;;5029905;28;20025;-70
2022/01/09 07:05:11;;;;;;;4.93;1.98;;;8.50;94.70;;;;;;5044535;28;20033;-70
2022/01/09 07:07:37;;;;;;;28.27;2.72;;;8.50;94.70;;;;;;5043456;28;20029;-70
2022/01/09 07:10:03;;;;;;;9.52;2.28;;;8.50;94.70;;;;;;5044001;28;20043;-70
2022/01/09 07:12:29;;;;;;;16.30;2.08;;;8.40;94.70;;;;;;5046011;28;20056;-70
2022/01/09 07:14:54;;;;;;;3.13;0.85;;;8.40;94.70;;;;;;5045127;28;20029;-70
2022/01/09 07:17:20;;;;;;;10.45;1.80;;;8.40;94.70;;;;;;5011454;28;20034;-70
2022/01/09 07:19:46;;;;;;;2.83;1.23;;;8.40;94.70;;;;;;5038915;28;20139;-70
2022/01/09 07:22:12;;;;;;;3.42;1.63;;;8.40;94.70;;;;;;5052062;28;20037;-70
2022/01/09 07:24:37;;;;;;;5.38;1.42;;;8.40;94.70;;;;;;5049482;28;20100;-70
2022/01/09 07:27:03;;;;;;;10.98;1.67;;;8.40;94.70;;;;;;5012318;28;20473;-70
2022/01/09 07:29:29;;;;;;;14.02;3.10;;;8.40;94.70;;;;;;5024894;28;20026;-70
2022/01/09 07:31:57;;;;;;;9.48;2.88;;;8.40;94.50;;;;;;5023191;28;20041;-70
2022/01/09 07:34:23;;;;;;;15.00;2.65;;;8.40;94.60;;;;;;5031007;28;20037;-70
2022/01/09 07:36:48;;;;;;;16.98;2.58;;;8.40;94.60;;;;;;5050615;28;20396;-70
2022/01/09 07:39:17;;;;;;;10.73;1.88;;;8.40;94.50;;;;;;5054878;28;20028;-70
2022/01/09 07:41:44;;;;;;;2.35;1.02;;;8.40;94.60;;;;;;5054966;28;20041;-70
2022/01/09 07:44:10;;;;;;;14.05;2.40;;;8.40;94.60;;;;;;5044516;28;20041;-70
2022/01/09 07:46:35;;;;;;;5.90;1.85;;;8.40;94.60;;;;;;5052094;28;20021;-70
2022/01/09 07:49:02;;;;;;;16.60;2.28;;;8.40;94.60;;;;;;5053435;28;20489;-70
2022/01/09 07:51:28;;;;;;;6.63;1.30;;;8.40;94.60;;;;;;5039406;28;20045;-70
2022/01/09 07:53:53;;;;;;;11.32;1.90;;;8.40;94.50;;;;;;5014518;28;20033;-70
2022/01/09 07:56:19;;;;;;;19.67;3.53;;;8.40;94.50;;;;;;5016466;28;20377;-70
2022/01/09 07:58:45;;;;;;;4.38;1.13;;;8.40;94.50;;;;;;5016492;28;20047;-70
2022/01/09 08:01:17;;;;;;;8.07;2.03;;;8.40;94.50;;;;;;5015663;28;20021;-70
2022/01/09 08:03:42;;;;;;;13.43;1.77;;;8.40;94.50;;;;;;5017477;28;20030;-70
2022/01/09 08:06:08;;;;;;;8.75;2.83;;;8.40;94.50;;;;;;5013942;28;20037;-70
2022/01/09 08:08:33;;;;;;;6.20;1.77;;;8.40;94.30;;;;;;5015225;28;20037;-70
2022/01/09 08:10:59;;;;;;;7.53;1.55;;;8.40;94.60;;;;;;5019733;28;20431;-70
2022/01/09 08:13:25;;;;;;;13.38;2.78;;;8.40;94.40;;;;;;5013940;28;20090;-70
2022/01/09 08:15:50;;;;;;;18.33;2.95;;;8.40;94.60;;;;;;5014547;28;20470;-71
2022/01/09 08:18:16;;;;;;;7.18;1.65;;;8.30;94.40;;;;;;5016986;28;20478;-70
2022/01/09 08:20:41;;;;;;;6.55;1.63;;;8.40;94.50;;;;;;5013705;28;20029;-71
2022/01/09 08:23:07;;;;;;;2.28;0.85;;;8.40;94.50;;;;;;5014320;28;20473;-71
2022/01/09 08:25:33;;;;;;;15.15;2.05;;;8.40;94.50;;;;;;5019604;28;20033;-71
2022/01/09 08:27:58;;;;;;;2.63;1.23;;;8.40;94.50;;;;;;5013425;28;20458;-70
2022/01/09 08:30:24;;;;;;;7.93;1.75;;;8.40;94.50;;;;;;5014218;28;20030;-75
2022/01/09 08:32:52;;;;;;;8.23;3.13;;;8.40;94.50;;;;;;5016537;28;20034;-71
2022/01/09 08:35:19;;;;;;;14.73;2.53;;;8.40;94.50;;;;;;5013573;28;20378;-71
2022/01/09 08:37:45;;;;;;;3.38;1.38;;;8.40;94.50;;;;;;5012857;28;20033;-71
2022/01/09 08:40:19;;;;;;;6.00;2.15;;;8.30;94.60;;;;;;5015930;28;20030;-71
2022/01/09 08:42:46;;;;;;;6.32;1.25;;;8.30;94.60;;;;;;5014616;28;20034;-71
2022/01/09 08:45:11;;;;;;;9.15;1.88;;;8.30;94.60;;;;;;5014554;28;20049;-71
2022/01/09 08:47:38;;;;;;;4.47;0.90;;;8.30;94.60;;;;;;5013855;28;20026;-71
2022/01/09 08:50:07;;;;;;;8.70;1.70;;;8.30;94.70;;;;;;5015846;28;20062;-71
2022/01/09 08:52:33;;;;;;;5.85;1.73;;;8.30;94.60;;;;;;5013469;28;20042;-73
2022/01/09 08:55:00;;;;;;;1.38;0.68;;;8.30;94.50;;;;;;5012483;28;20036;-70
2022/01/09 08:57:25;;;;;;;5.78;1.45;;;8.30;94.60;;;;;;5016531;28;20037;-70
2022/01/09 08:59:52;;;;;;;12.05;1.50;;;8.30;94.60;;;;;;5013317;28;20025;-69
2022/01/09 09:02:18;;;;;;;15.93;2.90;;;8.30;94.60;;;;;;5015866;28;20065;-69
2022/01/09 09:04:44;;;;;;;6.15;1.95;;;8.30;94.50;;;;;;5016126;28;20033;-75
2022/01/09 09:07:10;;;;;;;11.48;2.15;;;8.30;94.40;;;;;;5013279;28;20030;-71
2022/01/09 09:09:37;;;;;;;4.53;1.10;;;8.30;94.30;;;;;;5012288;28;20065;-74
2022/01/09 09:12:03;;;;;;;14.38;1.65;;;8.30;94.40;;;;;;5011256;28;20060;-70
2022/01/09 09:14:29;;;;;;;5.53;2.05;;;8.30;94.40;;;;;;5011482;28;20621;-70
2022/01/09 09:16:56;;;;;;;3.10;1.02;;;8.30;94.30;;;;;;5014071;28;20145;-70
2022/01/09 09:19:21;;;;;;;4.47;1.20;;;8.30;94.40;;;;;;5013312;28;20040;-71
2022/01/09 09:21:47;;;;;;;6.93;1.60;;;8.30;94.30;;;;;;5011298;28;20417;-71
2022/01/09 09:24:13;;;;;;;0.60;0.60;;;8.30;94.40;;;;;;5011601;28;20025;-71
2022/01/09 09:26:39;;;;;;;14.10;2.00;;;8.30;94.30;;;;;;5013256;28;20030;-70
2022/01/09 09:29:08;;;;;;;4.85;1.52;;;8.30;94.30;;;;;;5011252;28;20030;-71
2022/01/09 09:31:34;;;;;;;3.20;1.00;;;8.30;94.40;;;;;;5010889;28;20038;-71
2022/01/09 09:34:00;;;;;;;8.52;2.30;;;8.30;94.40;;;;;;5017386;28;20107;-70
2022/01/09 09:36:26;;;;;;;7.03;0.85;;;8.30;94.50;;;;;;5017101;28;20068;-70
2022/01/09 09:38:55;;;;;;;8.63;2.15;;;8.30;94.60;;;;;;5017396;28;20821;-70
2022/01/09 09:41:24;;;;;;;8.65;1.55;;;8.30;94.60;;;;;;5016771;28;20050;-71
2022/01/09 09:43:51;;;;;;;7.07;1.45;;;8.20;94.60;;;;;;5021130;28;20036;-70
2022/01/09 09:46:19;;;;;;;12.68;2.28;;;8.30;94.70;;;;;;5019153;28;20088;-70
2022/01/09 09:48:45;;;;;;;4.95;1.42;;;8.20;94.70;;;;;;5021906;28;20060;-70
2022/01/09 09:51:11;;;;;;;10.05;2.42;;;8.20;94.70;;;;;;5017250;28;20046;-71
2022/01/09 09:53:40;;;;;;;9.93;2.40;;;8.20;94.80;;;;;;5014716;28;20034;-70
2022/01/09 09:56:05;;;;;;;6.05;1.98;;;8.20;94.80;;;;;;5021650;28;20057;-70
2022/01/09 09:58:31;;;;;;;8.32;2.05;;;8.20;94.90;;;;;;5025901;28;20060;-70
2022/01/09 10:00:59;;;;;;;4.10;1.58;;;8.20;94.90;;;;;;5024749;28;20457;-72
2022/01/09 10:03:32;;;;;;;6.60;2.20;;;8.20;95.00;;;;;;5021291;28;20057;-69
2022/01/09 10:05:59;;;;;;;6.78;1.60;;;8.20;95.00;;;;;;5017672;28;20474;-69
2022/01/09 10:08:39;;;;;;;13.77;2.55;;;8.10;95.10;;;;;;5017272;28;20037;-70
2022/01/09 10:11:16;;;;;;;7.68;1.80;;;8.20;95.10;;;;;;5017049;28;20041;-68
2022/01/09 10:13:42;;;;;;;7.78;2.72;;;8.20;95.20;;;;;;5010442;28;20026;-69
2022/01/09 10:16:10;;;;;;;8.55;2.08;;;8.20;95.20;;;;;;5018136;28;20029;-69
2022/01/09 10:18:54;;;;;;;5.32;1.95;;;8.10;95.20;;;;;;5016941;28;20503;-69
2022/01/09 10:21:24;;;;;;;11.60;2.38;;;8.10;95.30;;;;;;5014769;28;20025;-69
2022/01/09 10:24:07;;;;;;;9.75;2.63;;;8.10;95.40;;;;;;5018365;28;20045;-69
2022/01/09 10:26:35;;;;;;;10.77;2.30;;;8.10;95.50;;;;;;5023931;28;20037;-71
2022/01/09 10:29:07;;;;;;;7.00;2.13;;;8.10;95.50;;;;;;5018088;28;20034;-69
2022/01/09 10:31:46;;;;;;;8.50;2.17;;;8.10;95.50;;;;;;5019818;28;20056;-68
2022/01/09 10:34:16;;;;;;;11.80;2.42;;;8.00;95.60;;;;;;5019339;28;20026;-69
2022/01/09 10:36:48;;;;;;;10.13;2.30;;;8.10;95.60;;;;;;5019066;28;20060;-69
2022/01/09 10:39:38;;;;;;;14.63;2.00;;;8.10;95.70;;;;;;5020237;28;20026;-70
2022/01/09 10:42:07;;;;;;;10.88;2.58;;;8.10;95.60;;;;;;5020597;28;20037;-68
2022/01/09 10:44:35;;;;;;;11.63;3.03;;;8.10;95.60;;;;;;5024023;28;20041;-70
2022/01/09 10:47:07;;;;;;;11.07;1.40;;;8.10;95.60;;;;;;5012738;28;20030;-69
2022/01/09 10:49:46;;;;;;;9.15;1.90;;;8.20;95.70;;;;;;5011676;28;20509;-71
2022/01/09 10:52:12;;;;;;;9.55;2.42;;;8.20;95.70;;;;;;5015164;28;20081;-69
2022/01/09 10:54:40;;;;;;;7.47;2.08;;;8.20;95.60;;;;;;5010539;28;20053;-68
2022/01/09 10:57:18;;;;;;;9.63;2.00;;;8.20;95.70;;;;;;5012398;28;20382;-67
2022/01/09 10:59:44;;;;;;;7.53;2.00;;;8.20;95.70;;;;;;5031203;28;20061;-68
2022/01/09 11:02:12;;;;;;;5.93;1.25;;;8.20;95.70;;;;;;5028747;28;20072;-69
2022/01/09 11:04:40;;;;;;;13.05;1.45;;;8.20;95.70;;;;;;5026181;28;20042;-68
2022/01/09 11:07:07;;;;;;;6.32;1.83;;;8.30;95.80;;;;;;5031026;28;20033;-68
2022/01/09 11:09:33;;;;;;;5.80;1.15;;;8.30;95.80;;;;;;5027859;28;20044;-68
2022/01/09 11:12:01;;;;;;;9.73;1.77;;;8.30;95.80;;;;;;5031501;28;20136;-68
2022/01/09 11:14:30;;;;;;;9.48;1.75;;;8.40;95.80;;;;;;5032041;28;20033;-68
2022/01/09 11:16:59;;;;;;;6.85;1.60;;;8.40;95.80;;;;;;5034371;28;20030;-68
2022/01/09 11:19:44;;;;;;;9.00;2.30;;;8.40;95.80;;;;;;5034852;28;20187;-69
2022/01/09 11:22:12;;;;;;;9.05;2.35;;;8.40;95.80;;;;;;5032044;28;20064;-69
2022/01/09 11:24:57;;;;;;;3.67;1.48;;;8.40;95.80;;;;;;5033880;28;20037;-69
2022/01/09 11:28:03;;;;;;;10.05;1.83;;;8.30;95.90;;;;;;5029521;28;20076;-69
2022/01/09 11:30:38;;;;;;;9.55;2.00;;;8.40;95.90;;;;;;5022606;28;20041;-69
2022/01/09 11:33:31;;;;;;;10.25;2.45;;;8.40;95.90;;;;;;5023157;28;20045;-70
2022/01/09 11:36:25;;;;;;;7.50;1.60;;;8.40;95.90;;;;;;5020344;28;20029;-70
2022/01/09 11:39:20;;;;;;;;;;;8.40;96.00;;;;;;5020272;28;20030;-70
2022/01/09 11:42:14;;;;;;;10.57;1.80;;;8.40;95.90;;;;;;5033007;28;20276;-70
2022/01/09 11:44:46;;;;;;;7.60;1.92;;;8.40;95.90;;;;;;5024726;28;20049;-70
2022/01/09 11:47:13;;;;;;;6.45;2.08;;;8.40;96.00;;;;;;5024447;28;20500;-70
2022/01/09 11:49:56;;;;;;;7.03;1.98;;;8.40;96.00;;;;;;5045416;28;20523;-69
2022/01/09 11:52:29;;;;;;;11.20;2.50;;;8.40;96.00;;;;;;5032960;28;20085;-70
2022/01/09 11:54:59;;;;;;;;;;;8.50;96.00;;;;;;5036939;28;20060;-72
2022/01/09 11:57:41;;;;;;;10.20;1.98;;;8.50;96.00;;;;;;5016194;28;19956;-72
2022/01/09 12:00:26;;;;;;;4.07;1.63;;;8.50;96.00;;;;;;5016038;28;20502;-75
2022/01/09 12:02:52;;;;;;;10.52;1.80;;;8.50;96.00;;;;;;5018114;28;20434;-75
2022/01/09 12:05:18;;;;;;;7.75;1.73;;;8.40;96.00;;;;;;5014176;28;20825;-71
2022/01/09 12:07:47;;;;;;;9.77;2.05;;;8.50;96.10;;;;;;5014456;28;20065;-72
2022/01/09 12:10:22;;;;;;;8.45;1.10;;;8.50;96.10;;;;;;5014873;28;20069;-71
2022/01/09 12:12:49;;;;;;;5.65;2.00;;;8.50;96.10;;;;;;5018926;28;20037;-71
2022/01/09 12:15:41;;;;;;;11.45;2.05;;;8.50;96.00;;;;;;5030119;28;20036;-72
2022/01/09 12:18:39;;;;;;;3.28;1.70;;;8.50;96.00;;;;;;5029964;28;20465;-72
2022/01/09 12:21:05;;;;;;;10.40;1.92;;;8.60;96.00;;;;;;5031865;28;20481;-72
2022/01/09 12:23:30;;;;;;;8.95;2.20;;;8.60;96.00;;;;;;5031478;28;20036;-71
2022/01/09 12:25:56;;;;;;;8.50;2.22;;;8.60;96.00;;;;;;5028899;28;20112;-73
2022/01/09 12:28:24;;;;;;;7.00;2.00;;;8.60;96.00;;;;;;5029738;28;20048;-71
2022/01/09 12:30:58;;;;;;;8.98;2.20;;;8.60;96.10;;;;;;5032233;28;20030;-70
2022/01/09 12:33:32;;;;;;;4.43;1.65;;;8.60;96.10;;;;;;5026290;28;20052;-71
2022/01/09 12:36:04;;;;;;;19.27;2.30;;;8.70;96.10;;;;;;5029863;28;20026;-71
2022/01/09 12:38:32;;;;;;;9.05;1.85;;;8.70;96.20;;;;;;5029363;28;20040;-70
2022/01/09 12:41:03;;;;;;;13.38;3.08;;;8.80;96.10;;;;;;5031868;28;20037;-71
2022/01/09 12:43:30;;;;;;;7.22;1.25;;;8.70;95.90;;;;;;5029792;28;20029;-69
2022/01/09 12:45:56;;;;;;;4.63;1.38;;;8.80;96.00;;;;;;5032332;28;20370;-71
2022/01/09 12:48:27;;;;;;;10.73;1.48;;;8.80;95.80;;;;;;5029256;28;20049;-74
2022/01/09 12:50:55;;;;;;;6.68;1.42;;;8.90;95.80;;;;;;5033825;28;20073;-71
2022/01/09 12:53:23;;;;;;;11.27;2.10;;;8.90;95.80;;;;;;5029483;28;20065;-69
2022/01/09 12:55:56;;;;;;;7.70;2.13;;;9.00;95.70;;;;;;5031886;28;20036;-70
2022/01/09 12:58:28;;;;;;;9.43;1.15;;;9.00;95.70;;;;;;5020218;28;20030;-73